createdAt,value
2018-03-23T00:00:36.256Z,19.23
2018-03-23T00:03:04.865Z,17.80
2018-03-23T00:05:32.372Z,19.07
2018-03-23T00:07:59.873Z,19.30
2018-03-23T00:10:27.381Z,18.60
2018-03-23T00:12:54.907Z,19.00
2018-03-23T00:15:22.392Z,20.40
2018-03-23T00:17:50.008Z,20.77
2018-03-23T00:20:17.539Z,20.53
2018-03-23T00:22:45.803Z,21.80
2018-03-23T00:25:14.077Z,22.40
2018-03-23T00:27:42.343Z,20.70
2018-03-23T00:30:10.695Z,20.07
2018-03-23T00:32:38.187Z,22.47
2018-03-23T00:35:06.448Z,21.20
2018-03-23T00:37:34.749Z,21.30
2018-03-23T00:40:02.236Z,23.07
2018-03-23T00:42:29.754Z,23.73
2018-03-23T00:44:58.035Z,23.17
2018-03-23T00:47:26.317Z,21.83
2018-03-23T00:49:53.860Z,22.67
2018-03-23T00:52:22.144Z,22.30
2018-03-23T00:54:49.661Z,24.50
2018-03-23T00:57:17.809Z,23.87
2018-03-23T00:59:45.312Z,25.70
2018-03-23T01:02:12.884Z,25.50
2018-03-23T01:04:41.147Z,24.23
2018-03-23T01:07:09.417Z,23.70
2018-03-23T01:09:37.724Z,23.13
2018-03-23T01:12:05.255Z,22.90
2018-03-23T01:14:33.527Z,22.77
2018-03-23T01:17:01.797Z,22.57
2018-03-23T01:19:30.096Z,24.90
2018-03-23T01:21:57.605Z,23.50
2018-03-23T01:24:25.139Z,23.97
2018-03-23T01:26:52.806Z,22.67
2018-03-23T01:29:20.313Z,22.23
2018-03-23T01:31:48.602Z,23.80
2018-03-23T01:34:16.871Z,24.17
2018-03-23T01:36:45.139Z,22.73
2018-03-23T01:39:13.429Z,22.57
2018-03-23T01:41:40.933Z,23.40
2018-03-23T01:44:08.460Z,24.47
2018-03-23T01:46:35.955Z,22.30
2018-03-23T01:49:03.462Z,24.47
2018-03-23T01:51:30.967Z,24.77
2018-03-23T01:53:58.559Z,22.70
2018-03-23T01:56:26.820Z,23.23
2018-03-23T01:58:55.085Z,25.40
2018-03-23T02:01:22.582Z,23.53
2018-03-23T02:03:50.097Z,25.00
2018-03-23T02:06:17.675Z,24.47
2018-03-23T02:08:45.936Z,23.53
2018-03-23T02:11:13.521Z,25.10
2018-03-23T02:13:41.036Z,25.40
2018-03-23T02:16:08.547Z,24.80
2018-03-23T02:18:36.089Z,23.80
2018-03-23T02:21:04.351Z,24.70
2018-03-23T02:23:32.625Z,25.10
2018-03-23T02:26:00.890Z,22.47
2018-03-23T02:28:28.394Z,24.80
2018-03-23T02:30:55.892Z,25.83
2018-03-23T02:33:23.485Z,23.30
2018-03-23T02:35:51.051Z,24.83
2018-03-23T02:38:18.615Z,23.13
2018-03-23T02:40:46.119Z,24.80
2018-03-23T02:43:13.632Z,24.50
2018-03-23T02:45:41.140Z,25.43
2018-03-23T02:48:08.644Z,23.30
2018-03-23T02:50:36.156Z,23.50
2018-03-23T02:53:03.657Z,22.83
2018-03-23T02:55:31.148Z,24.43
2018-03-23T02:57:58.751Z,25.40
2018-03-23T03:00:26.329Z,23.53
2018-03-23T03:02:53.819Z,23.00
2018-03-23T03:05:21.328Z,23.00
2018-03-23T03:07:48.887Z,22.77
2018-03-23T03:10:16.476Z,23.03
2018-03-23T03:12:43.990Z,23.77
2018-03-23T03:15:12.258Z,22.50
2018-03-23T03:17:40.543Z,22.13
2018-03-23T03:20:08.819Z,22.17
2018-03-23T03:22:37.090Z,23.87
2018-03-23T03:25:05.381Z,23.67
2018-03-23T03:27:32.929Z,23.00
2018-03-23T03:30:01.205Z,22.40
2018-03-23T03:32:28.765Z,22.13
2018-03-23T03:34:56.273Z,24.40
2018-03-23T03:37:23.773Z,22.73
2018-03-23T03:39:52.060Z,24.43
2018-03-23T03:42:19.631Z,26.23
2018-03-23T03:44:47.159Z,22.90
2018-03-23T03:47:15.539Z,24.90
2018-03-23T03:49:43.810Z,23.97
2018-03-23T03:52:12.116Z,23.97
2018-03-23T03:54:39.645Z,23.77
2018-03-23T03:57:07.144Z,23.40
2018-03-23T03:59:34.643Z,23.80
2018-03-23T04:02:02.213Z,25.80
2018-03-23T04:04:29.757Z,23.50
2018-03-23T04:06:57.339Z,24.60
2018-03-23T04:09:24.832Z,23.70
2018-03-23T04:11:52.341Z,23.67
2018-03-23T04:14:20.614Z,24.97
2018-03-23T04:16:48.892Z,22.80
2018-03-23T04:19:17.173Z,25.17
2018-03-23T04:21:44.680Z,24.97
2018-03-23T04:24:12.210Z,24.63
2018-03-23T04:26:39.711Z,24.40
2018-03-23T04:29:07.302Z,24.20
2018-03-23T04:31:35.567Z,23.43
2018-03-23T04:34:03.838Z,23.53
2018-03-23T04:36:32.099Z,24.37
2018-03-23T04:38:59.590Z,24.57
2018-03-23T04:41:27.147Z,24.40
2018-03-23T04:43:54.632Z,26.13
2018-03-23T04:46:22.119Z,24.00
2018-03-23T04:48:49.715Z,23.93
2018-03-23T04:51:17.242Z,25.03
2018-03-23T04:53:45.514Z,23.90
2018-03-23T04:56:13.826Z,22.33
2018-03-23T04:58:41.343Z,24.40
2018-03-23T05:01:08.873Z,22.87
2018-03-23T05:03:36.381Z,23.40
2018-03-23T05:06:04.644Z,26.03
2018-03-23T05:08:32.222Z,25.07
2018-03-23T05:11:00.478Z,29.87
2018-03-23T05:13:29.485Z,23.77
2018-03-23T05:15:57.889Z,25.10
2018-03-23T05:18:25.393Z,23.70
2018-03-23T05:20:52.891Z,23.20
2018-03-23T05:23:20.463Z,24.00
2018-03-23T05:25:47.979Z,24.97
2018-03-23T05:28:16.267Z,24.20
2018-03-23T05:30:44.515Z,25.00
2018-03-23T05:33:12.029Z,25.13
2018-03-23T05:35:39.543Z,24.60
2018-03-23T05:38:07.843Z,23.80
2018-03-23T05:40:35.383Z,24.80
2018-03-23T05:43:03.653Z,24.97
2018-03-23T05:45:31.225Z,23.13
2018-03-23T05:47:58.737Z,21.80
2018-03-23T05:50:26.252Z,25.63
2018-03-23T05:52:53.758Z,24.67
2018-03-23T05:55:22.888Z,25.10
2018-03-23T05:57:51.160Z,24.33
2018-03-23T06:00:19.457Z,25.30
2018-03-23T06:02:46.958Z,23.83
2018-03-23T06:05:14.443Z,26.70
2018-03-23T06:07:42.707Z,26.10
2018-03-23T06:10:11.009Z,25.27
2018-03-23T06:12:38.580Z,25.60
2018-03-23T06:15:06.113Z,23.20
2018-03-23T06:17:34.373Z,25.20
2018-03-23T06:20:02.659Z,25.30
2018-03-23T06:22:30.931Z,22.23
2018-03-23T06:24:59.186Z,22.57
2018-03-23T06:27:27.457Z,22.13
2018-03-23T06:29:54.957Z,23.70
2018-03-23T06:32:22.460Z,23.23
2018-03-23T06:34:50.723Z,22.80
2018-03-23T06:37:18.243Z,23.30
2018-03-23T06:39:45.737Z,21.83
2018-03-23T06:42:13.241Z,20.70
2018-03-23T06:44:41.519Z,23.10
2018-03-23T06:47:09.805Z,22.00
2018-03-23T06:49:37.361Z,21.80
2018-03-23T06:52:04.891Z,22.03
2018-03-23T06:54:33.195Z,21.13
2018-03-23T06:57:00.697Z,21.87
2018-03-23T06:59:28.309Z,21.33
2018-03-23T07:01:55.841Z,20.53
2018-03-23T07:04:24.110Z,20.87
2018-03-23T07:06:52.410Z,22.93
2018-03-23T07:09:19.994Z,24.30
2018-03-23T07:11:47.523Z,21.80
2018-03-23T07:14:15.924Z,21.17
2018-03-23T07:16:43.466Z,21.07
2018-03-23T07:19:10.954Z,21.30
2018-03-23T07:21:38.451Z,23.43
2018-03-23T07:24:05.935Z,21.43
2018-03-23T07:26:33.430Z,23.10
2018-03-23T07:29:00.939Z,21.37
2018-03-23T07:31:28.457Z,21.60
2018-03-23T07:33:55.947Z,22.03
2018-03-23T07:36:24.249Z,21.40
2018-03-23T07:38:51.807Z,22.37
2018-03-23T07:41:19.329Z,21.20
2018-03-23T07:43:47.605Z,24.77
2018-03-23T07:46:15.883Z,23.37
2018-03-23T07:48:44.169Z,23.20
2018-03-23T07:51:11.696Z,20.83
2018-03-23T07:53:39.193Z,21.40
2018-03-23T07:56:06.753Z,21.40
2018-03-23T07:58:34.261Z,21.50
2018-03-23T08:01:01.751Z,20.50
2018-03-23T08:03:30.033Z,22.00
2018-03-23T08:05:57.516Z,21.10
2018-03-23T08:08:25.000Z,22.90
2018-03-23T08:10:52.508Z,21.90
2018-03-23T08:13:20.015Z,22.07
2018-03-23T08:15:47.507Z,22.07
2018-03-23T08:18:15.783Z,22.17
2018-03-23T08:20:43.330Z,21.57
2018-03-23T08:23:11.589Z,23.07
2018-03-23T08:25:39.097Z,23.23
2018-03-23T08:28:06.587Z,22.87
2018-03-23T08:30:34.143Z,20.67
2018-03-23T08:33:01.663Z,21.83
2018-03-23T08:35:29.299Z,22.00
2018-03-23T08:37:57.575Z,20.60
2018-03-23T08:40:25.136Z,22.17
2018-03-23T08:42:52.705Z,20.20
2018-03-23T08:45:20.197Z,22.43
2018-03-23T08:47:47.718Z,21.63
2018-03-23T08:50:15.214Z,20.27
2018-03-23T08:52:42.719Z,21.10
2018-03-23T08:55:10.989Z,19.50
2018-03-23T08:57:39.244Z,19.33
2018-03-23T09:00:06.745Z,18.40
2018-03-23T09:02:34.231Z,18.93
2018-03-23T09:05:01.731Z,20.50
2018-03-23T09:07:29.994Z,19.27
2018-03-23T09:09:58.291Z,18.63
2018-03-23T09:12:25.787Z,20.07
2018-03-23T09:14:53.337Z,19.90
2018-03-23T09:17:21.014Z,20.10
2018-03-23T09:19:48.744Z,17.90
2018-03-23T09:22:16.321Z,18.97
2018-03-23T09:24:43.827Z,20.10
2018-03-23T09:27:12.199Z,20.43
2018-03-23T09:29:40.483Z,18.17
2018-03-23T09:32:08.785Z,18.73
2018-03-23T09:34:36.405Z,19.23
2018-03-23T09:37:04.988Z,18.27
2018-03-23T09:39:32.619Z,18.20
2018-03-23T09:42:00.219Z,20.30
2018-03-23T09:44:28.483Z,20.40
2018-03-23T09:46:56.743Z,19.00
2018-03-23T09:49:24.323Z,18.97
2018-03-23T09:51:52.580Z,17.30
2018-03-23T09:54:20.172Z,16.77
2018-03-23T09:56:47.712Z,17.57
2018-03-23T09:59:15.997Z,18.60
2018-03-23T10:01:43.499Z,16.90
2018-03-23T10:04:10.988Z,17.43
2018-03-23T10:06:39.272Z,18.67
2018-03-23T10:09:07.555Z,15.27
2018-03-23T10:11:35.833Z,15.57
2018-03-23T10:14:04.213Z,17.37
2018-03-23T10:16:31.702Z,16.70
2018-03-23T10:18:59.219Z,17.60
2018-03-23T10:21:27.483Z,16.30
2018-03-23T10:23:55.751Z,16.10
2018-03-23T10:26:23.249Z,16.60
2018-03-23T10:28:50.788Z,16.10
2018-03-23T10:31:18.297Z,16.10
2018-03-23T10:33:45.789Z,14.20
2018-03-23T10:36:14.090Z,17.00
2018-03-23T10:38:41.577Z,17.57
2018-03-23T10:41:09.074Z,17.00
2018-03-23T10:43:37.335Z,15.00
2018-03-23T10:46:04.911Z,16.10
2018-03-23T10:48:33.195Z,14.80
2018-03-23T10:51:00.787Z,15.63
2018-03-23T10:53:28.332Z,15.57
2018-03-23T10:55:56.554Z,15.30
2018-03-23T10:58:24.051Z,15.13
2018-03-23T11:00:57.353Z,16.67
2018-03-23T11:03:24.856Z,17.43
2018-03-23T11:05:52.344Z,16.23
2018-03-23T11:08:20.840Z,14.50
2018-03-23T11:10:48.361Z,16.87
2018-03-23T11:13:15.849Z,15.33
2018-03-23T11:15:43.409Z,15.20
2018-03-23T11:18:10.898Z,15.67
2018-03-23T11:20:38.392Z,16.43
2018-03-23T11:23:06.650Z,15.20
2018-03-23T11:25:34.263Z,15.97
2018-03-23T11:28:01.757Z,15.83
2018-03-23T11:30:29.261Z,14.27
2018-03-23T11:32:56.753Z,13.93
2018-03-23T11:35:24.247Z,16.10
2018-03-23T11:37:51.751Z,14.40
2018-03-23T11:40:19.241Z,16.30
2018-03-23T11:42:46.842Z,15.07
2018-03-23T11:45:14.340Z,15.33
2018-03-23T11:47:41.962Z,14.20
2018-03-23T11:50:09.537Z,14.80
2018-03-23T11:52:37.027Z,15.63
2018-03-23T11:55:05.326Z,15.20
2018-03-23T11:57:33.596Z,14.50
2018-03-23T12:00:01.104Z,13.20
2018-03-23T12:02:28.598Z,14.43
2018-03-23T12:04:56.094Z,15.30
2018-03-23T12:07:23.615Z,14.43
2018-03-23T12:09:51.178Z,14.80
2018-03-23T12:12:18.669Z,15.13
2018-03-23T12:14:46.168Z,16.60
2018-03-23T12:17:13.897Z,14.10
2018-03-23T12:19:42.125Z,14.30
2018-03-23T12:22:10.447Z,14.00
2018-03-23T12:24:38.049Z,16.00
2018-03-23T12:27:06.344Z,14.53
2018-03-23T12:29:34.637Z,16.67
2018-03-23T12:32:03.008Z,14.47
2018-03-23T12:34:30.588Z,15.83
2018-03-23T12:36:58.152Z,15.93
2018-03-23T12:39:25.676Z,14.70
2018-03-23T12:41:53.950Z,15.07
2018-03-23T12:44:22.211Z,16.13
2018-03-23T12:46:49.699Z,14.17
2018-03-23T12:49:17.210Z,15.30
2018-03-23T12:51:44.703Z,14.50
2018-03-23T12:54:12.193Z,15.60
2018-03-23T12:56:39.809Z,15.47
2018-03-23T12:59:08.073Z,17.50
2018-03-23T13:01:36.353Z,14.70
2018-03-23T13:04:04.631Z,16.20
2018-03-23T13:06:32.876Z,15.40
2018-03-23T13:09:00.463Z,16.80
2018-03-23T13:11:28.707Z,15.93
2018-03-23T13:13:56.205Z,16.43
2018-03-23T13:16:23.764Z,16.80
2018-03-23T13:18:51.279Z,16.70
2018-03-23T13:21:18.873Z,17.40
2018-03-23T13:23:47.151Z,16.73
2018-03-23T13:26:15.425Z,14.70
2018-03-23T13:28:43.705Z,15.50
2018-03-23T13:31:11.982Z,15.10
2018-03-23T13:33:39.478Z,16.90
2018-03-23T13:36:07.103Z,15.20
2018-03-23T13:38:34.635Z,15.50
2018-03-23T13:41:02.906Z,17.53
2018-03-23T13:43:31.233Z,17.07
2018-03-23T13:45:58.780Z,16.77
2018-03-23T13:48:26.356Z,17.27
2018-03-23T13:50:53.871Z,15.80
2018-03-23T13:53:22.137Z,16.00
2018-03-23T13:55:50.405Z,14.97
2018-03-23T13:58:18.700Z,15.33
2018-03-23T14:00:51.859Z,13.83
2018-03-23T14:03:20.180Z,14.83
2018-03-23T14:05:47.674Z,14.67
2018-03-23T14:08:15.358Z,12.37
2018-03-23T14:10:43.631Z,15.00
2018-03-23T14:13:11.217Z,12.60
2018-03-23T14:15:38.746Z,13.63
2018-03-23T14:18:06.326Z,16.10
2018-03-23T14:20:33.922Z,15.20
2018-03-23T14:23:01.451Z,13.00
2018-03-23T14:25:28.952Z,13.83
2018-03-23T14:27:56.448Z,13.80
2018-03-23T14:30:25.751Z,12.53
2018-03-23T14:32:54.050Z,14.60
2018-03-23T14:35:21.610Z,14.10
2018-03-23T14:37:49.110Z,12.83
2018-03-23T14:40:16.709Z,12.30
2018-03-23T14:42:44.216Z,13.30
2018-03-23T14:45:11.815Z,12.60
2018-03-23T14:47:40.076Z,12.90
2018-03-23T14:50:08.331Z,12.33
2018-03-23T14:52:36.662Z,11.83
2018-03-23T14:55:04.144Z,11.60
2018-03-23T14:57:31.646Z,12.50
2018-03-23T14:59:59.945Z,13.23
2018-03-23T15:02:27.436Z,12.70
2018-03-23T15:04:54.926Z,13.00
2018-03-23T15:07:23.206Z,11.17
2018-03-23T15:09:51.454Z,10.80
2018-03-23T15:12:19.048Z,11.53
2018-03-23T15:14:47.345Z,16.00
2018-03-23T15:17:14.832Z,10.33
2018-03-23T15:19:42.335Z,12.50
2018-03-23T15:22:10.591Z,12.33
2018-03-23T15:24:38.085Z,10.43
2018-03-23T15:27:05.637Z,10.70
2018-03-23T15:29:33.191Z,11.33
2018-03-23T15:32:00.754Z,10.60
2018-03-23T15:34:28.259Z,11.10
2018-03-23T15:36:55.753Z,11.50
2018-03-23T15:39:23.289Z,11.13
2018-03-23T15:41:51.543Z,10.43
2018-03-23T15:44:19.038Z,11.27
2018-03-23T15:46:47.299Z,12.93
2018-03-23T15:49:15.603Z,13.17
2018-03-23T15:51:43.138Z,12.27
2018-03-23T15:54:11.499Z,12.53
2018-03-23T15:56:38.992Z,13.77
2018-03-23T15:59:06.504Z,12.17
2018-03-23T16:01:34.017Z,13.20
2018-03-23T16:04:01.517Z,12.40
2018-03-23T16:06:29.017Z,13.07
2018-03-23T16:08:56.530Z,14.40
2018-03-23T16:11:24.863Z,15.30
2018-03-23T16:13:52.385Z,12.97
2018-03-23T16:16:20.663Z,13.47
2018-03-23T16:18:48.946Z,14.30
2018-03-23T16:21:17.233Z,13.20
2018-03-23T16:23:44.749Z,14.23
2018-03-23T16:26:13.082Z,14.10
2018-03-23T16:28:40.615Z,13.57
2018-03-23T16:31:08.122Z,12.83
2018-03-23T16:33:35.623Z,12.00
2018-03-23T16:36:03.899Z,12.80
2018-03-23T16:38:31.409Z,11.80
2018-03-23T16:40:59.034Z,12.87
2018-03-23T16:43:26.550Z,12.43
2018-03-23T16:45:54.054Z,12.73
2018-03-23T16:48:21.568Z,13.23
2018-03-23T16:50:49.818Z,13.20
2018-03-23T16:53:17.306Z,12.47
2018-03-23T16:55:45.579Z,12.90
2018-03-23T16:58:13.870Z,12.33
2018-03-23T17:00:41.465Z,12.73
2018-03-23T17:03:08.963Z,12.63
2018-03-23T17:05:37.226Z,13.10
2018-03-23T17:08:04.739Z,12.40
2018-03-23T17:10:32.260Z,12.40
2018-03-23T17:13:00.620Z,11.90
2018-03-23T17:15:28.210Z,11.90
2018-03-23T17:17:55.771Z,12.20
2018-03-23T17:20:23.316Z,12.30
2018-03-23T17:22:51.575Z,12.40
2018-03-23T17:25:19.927Z,12.40
2018-03-23T17:27:47.459Z,11.50
2018-03-23T17:30:14.994Z,13.17
2018-03-23T17:32:42.634Z,11.63
2018-03-23T17:35:10.914Z,12.87
2018-03-23T17:37:39.186Z,13.60
2018-03-23T17:40:07.458Z,12.93
2018-03-23T17:42:35.720Z,13.80
2018-03-23T17:45:04.038Z,12.77
2018-03-23T17:47:31.593Z,12.63
2018-03-23T17:49:59.099Z,14.60
2018-03-23T17:52:26.647Z,14.37
2018-03-23T17:54:54.127Z,16.13
2018-03-23T17:57:22.411Z,17.00
2018-03-23T17:59:50.713Z,15.93
2018-03-23T18:02:18.209Z,17.20
2018-03-23T18:04:45.730Z,15.57
2018-03-23T18:07:13.259Z,15.90
2018-03-23T18:09:41.542Z,15.27
2018-03-23T18:12:09.070Z,15.13
2018-03-23T18:14:37.329Z,14.93
2018-03-23T18:17:04.872Z,16.87
2018-03-23T18:19:32.386Z,15.60
2018-03-23T18:21:59.961Z,15.30
2018-03-23T18:24:27.479Z,16.67
2018-03-23T18:26:55.767Z,14.30
2018-03-23T18:29:24.013Z,15.20
2018-03-23T18:31:51.561Z,15.30
2018-03-23T18:34:19.078Z,19.50
2018-03-23T18:36:46.568Z,17.97
2018-03-23T18:39:14.175Z,16.57
2018-03-23T18:41:42.445Z,16.77
2018-03-23T18:44:10.713Z,19.10
2018-03-23T18:46:39.024Z,17.03
2018-03-23T18:49:06.520Z,16.47
2018-03-23T18:51:34.023Z,16.47
2018-03-23T18:54:01.519Z,15.30
2018-03-23T18:56:29.040Z,15.00
2018-03-23T18:58:56.550Z,13.30
2018-03-23T19:01:24.110Z,14.90
2018-03-23T19:03:51.618Z,18.07
2018-03-23T19:06:19.129Z,17.77
2018-03-23T19:08:47.404Z,15.43
2018-03-23T19:11:15.809Z,13.70
2018-03-23T19:13:43.343Z,14.33
2018-03-23T19:16:12.445Z,19.67
2018-03-23T19:18:41.504Z,19.20
2018-03-23T19:21:10.696Z,23.53
2018-03-23T19:23:39.929Z,20.17
2018-03-23T19:26:08.671Z,16.10
2018-03-23T19:28:36.409Z,14.63
2018-03-23T19:31:04.007Z,15.90
2018-03-23T19:33:32.178Z,15.77
2018-03-23T19:35:59.823Z,14.67
2018-03-23T19:38:37.899Z,15.87
2018-03-23T19:41:05.752Z,16.13
2018-03-23T19:43:33.526Z,20.17
2018-03-23T19:46:01.822Z,18.00
2018-03-23T19:48:31.302Z,18.47
2018-03-23T19:50:59.651Z,24.43
2018-03-23T19:53:27.204Z,26.50
2018-03-23T19:55:54.760Z,27.17
2018-03-23T19:58:23.030Z,19.93
2018-03-23T20:00:51.415Z,19.77
2018-03-23T20:03:18.969Z,19.73
2018-03-23T20:05:46.534Z,19.27
2018-03-23T20:08:14.102Z,15.77
2018-03-23T20:10:41.597Z,16.97
2018-03-23T20:13:09.105Z,16.77
2018-03-23T20:15:36.600Z,16.13
2018-03-23T20:18:09.759Z,17.63
2018-03-23T20:20:43.068Z,15.53
2018-03-23T20:23:10.584Z,14.50
2018-03-23T20:25:38.847Z,16.30
2018-03-23T20:28:12.817Z,14.80
2018-03-23T20:30:40.443Z,16.07
2018-03-23T20:33:07.942Z,16.30
2018-03-23T20:35:35.467Z,16.03
2018-03-23T20:38:02.962Z,16.63
2018-03-23T20:40:30.454Z,18.10
2018-03-23T20:42:58.718Z,17.33
2018-03-23T20:45:26.963Z,17.23
2018-03-23T20:47:54.507Z,16.17
2018-03-23T20:50:22.000Z,15.97
2018-03-23T20:52:49.501Z,15.33
2018-03-23T20:55:17.037Z,16.00
2018-03-23T20:57:44.593Z,15.30
2018-03-23T21:00:12.101Z,15.60
2018-03-23T21:02:39.588Z,16.50
2018-03-23T21:05:07.840Z,15.80
2018-03-23T21:07:35.389Z,16.03
2018-03-23T21:10:02.918Z,15.33
2018-03-23T21:12:30.414Z,15.10
2018-03-23T21:14:57.977Z,16.10
2018-03-23T21:17:25.455Z,16.07
2018-03-23T21:19:53.733Z,15.00
2018-03-23T21:22:22.035Z,15.53
2018-03-23T21:24:49.539Z,15.23
2018-03-23T21:27:17.337Z,16.00
2018-03-23T21:29:44.845Z,16.10
2018-03-23T21:32:23.578Z,15.27
2018-03-23T21:34:51.072Z,15.07
2018-03-23T21:37:18.624Z,14.60
2018-03-23T21:39:46.895Z,14.57
2018-03-23T21:42:15.160Z,14.10
2018-03-23T21:44:43.480Z,13.00
2018-03-23T21:47:10.991Z,13.97
2018-03-23T21:49:39.266Z,13.20
2018-03-23T21:52:07.547Z,14.17
2018-03-23T21:54:35.832Z,13.97
2018-03-23T21:57:03.392Z,14.10
2018-03-23T21:59:30.881Z,14.97
2018-03-23T22:01:58.383Z,12.97
2018-03-23T22:04:25.962Z,15.60
2018-03-23T22:06:53.523Z,15.13
2018-03-23T22:09:21.050Z,13.87
2018-03-23T22:11:48.563Z,13.47
2018-03-23T22:14:16.167Z,13.90
2018-03-23T22:16:43.669Z,13.27
2018-03-23T22:19:11.215Z,13.83
2018-03-23T22:21:38.707Z,14.67
2018-03-23T22:24:06.203Z,12.90
2018-03-23T22:26:34.588Z,12.43
2018-03-23T22:29:02.847Z,12.70
2018-03-23T22:31:31.110Z,13.53
2018-03-23T22:33:58.624Z,14.90
2018-03-23T22:36:26.119Z,12.53
2018-03-23T22:38:53.632Z,14.00
2018-03-23T22:41:21.120Z,13.40
2018-03-23T22:43:48.762Z,13.57
2018-03-23T22:46:16.255Z,13.53
2018-03-23T22:48:43.751Z,13.33
2018-03-23T22:51:11.251Z,12.87
2018-03-23T22:53:38.743Z,14.27
2018-03-23T22:56:07.044Z,13.50
2018-03-23T22:58:34.571Z,14.40
2018-03-23T23:01:02.862Z,14.47
2018-03-23T23:03:31.142Z,12.53
2018-03-23T23:05:58.688Z,13.00
2018-03-23T23:08:26.944Z,14.43
2018-03-23T23:10:54.484Z,13.80
2018-03-23T23:13:21.986Z,13.10
2018-03-23T23:15:49.493Z,14.27
2018-03-23T23:18:16.995Z,14.93
2018-03-23T23:20:45.270Z,13.73
2018-03-23T23:23:12.847Z,15.70
2018-03-23T23:25:40.327Z,13.93
2018-03-23T23:28:07.836Z,13.87
2018-03-23T23:30:36.110Z,13.30
2018-03-23T23:33:03.617Z,14.30
2018-03-23T23:35:31.277Z,13.87
2018-03-23T23:37:58.782Z,14.30
2018-03-23T23:40:27.164Z,14.00
2018-03-23T23:42:54.655Z,12.43
2018-03-23T23:45:22.143Z,15.03
2018-03-23T23:47:49.633Z,13.90
2018-03-23T23:50:18.012Z,14.00
2018-03-23T23:52:46.278Z,13.87
2018-03-23T23:55:14.548Z,13.90
2018-03-23T23:57:42.822Z,15.67
